sensor_id;sensor_type;location;lat;lon;timestamp;P1;durP1;ratioP1;P2;durP2;ratioP2
12052;SDS011;6087;48.982;12.064;2023-02-27T00:02:22;2.37;;;1.80;;
12052;SDS011;6087;48.982;12.064;2023-02-27T00:04:49;2.37;;;1.50;;
12052;SDS011;6087;48.982;12.064;2023-02-27T00:07:18;2.07;;;1.80;;
12052;SDS011;6087;48.982;12.064;2023-02-27T00:09:50;1.83;;;1.50;;
12052;SDS011;6087;48.982;12.064;2023-02-27T00:12:18;2.07;;;1.87;;
12052;SDS011;6087;48.982;12.064;2023-02-27T00:14:46;1.70;;;1.60;;
12052;SDS011;6087;48.982;12.064;2023-02-27T00:17:13;2.10;;;1.90;;
12052;SDS011;6087;48.982;12.064;2023-02-27T00:19:40;2.53;;;1.40;;
12052;SDS011;6087;48.982;12.064;2023-02-27T00:22:07;3.43;;;2.00;;
12052;SDS011;6087;48.982;12.064;2023-02-27T00:24:34;5.03;;;1.80;;
12052;SDS011;6087;48.982;12.064;2023-02-27T00:27:01;2.37;;;1.90;;
12052;SDS011;6087;48.982;12.064;2023-02-27T00:29:30;2.50;;;1.73;;
12052;SDS011;6087;48.982;12.064;2023-02-27T00:31:57;1.90;;;1.50;;
12052;SDS011;6087;48.982;12.064;2023-02-27T00:34:24;3.43;;;1.80;;
12052;SDS011;6087;48.982;12.064;2023-02-27T00:36:51;2.63;;;1.53;;
12052;SDS011;6087;48.982;12.064;2023-02-27T00:39:18;5.20;;;2.27;;
12052;SDS011;6087;48.982;12.064;2023-02-27T00:41:45;2.80;;;2.03;;
12052;SDS011;6087;48.982;12.064;2023-02-27T00:44:12;2.50;;;1.50;;
12052;SDS011;6087;48.982;12.064;2023-02-27T00:46:41;2.53;;;1.80;;
12052;SDS011;6087;48.982;12.064;2023-02-27T00:49:08;1.73;;;1.63;;
12052;SDS011;6087;48.982;12.064;2023-02-27T00:51:35;2.07;;;1.83;;
12052;SDS011;6087;48.982;12.064;2023-02-27T00:54:02;2.43;;;1.87;;
12052;SDS011;6087;48.982;12.064;2023-02-27T00:56:29;2.23;;;1.73;;
12052;SDS011;6087;48.982;12.064;2023-02-27T00:58:56;1.97;;;1.53;;
12052;SDS011;6087;48.982;12.064;2023-02-27T01:01:23;1.80;;;1.70;;
12052;SDS011;6087;48.982;12.064;2023-02-27T01:03:52;4.53;;;2.20;;
12052;SDS011;6087;48.982;12.064;2023-02-27T01:06:19;3.37;;;1.70;;
12052;SDS011;6087;48.982;12.064;2023-02-27T01:08:46;3.37;;;1.70;;
12052;SDS011;6087;48.982;12.064;2023-02-27T01:11:13;1.83;;;1.60;;
12052;SDS011;6087;48.982;12.064;2023-02-27T01:13:43;2.37;;;1.60;;
12052;SDS011;6087;48.982;12.064;2023-02-27T01:16:10;2.53;;;1.70;;
12052;SDS011;6087;48.982;12.064;2023-02-27T01:18:37;1.90;;;1.80;;
12052;SDS011;6087;48.982;12.064;2023-02-27T01:21:07;2.63;;;1.80;;
12052;SDS011;6087;48.982;12.064;2023-02-27T01:23:34;2.00;;;1.90;;
12052;SDS011;6087;48.982;12.064;2023-02-27T01:26:01;4.47;;;1.73;;
12052;SDS011;6087;48.982;12.064;2023-02-27T01:28:28;2.17;;;1.80;;
12052;SDS011;6087;48.982;12.064;2023-02-27T01:30:56;1.80;;;1.70;;
12052;SDS011;6087;48.982;12.064;2023-02-27T01:33:23;3.20;;;1.80;;
12052;SDS011;6087;48.982;12.064;2023-02-27T01:35:50;3.20;;;1.87;;
12052;SDS011;6087;48.982;12.064;2023-02-27T01:38:18;4.53;;;2.13;;
12052;SDS011;6087;48.982;12.064;2023-02-27T01:40:45;3.20;;;2.40;;
12052;SDS011;6087;48.982;12.064;2023-02-27T01:43:13;2.50;;;1.93;;
12052;SDS011;6087;48.982;12.064;2023-02-27T01:45:41;2.20;;;2.00;;
12052;SDS011;6087;48.982;12.064;2023-02-27T01:48:13;2.67;;;1.80;;
12052;SDS011;6087;48.982;12.064;2023-02-27T01:50:45;2.53;;;2.10;;
12052;SDS011;6087;48.982;12.064;2023-02-27T01:53:16;4.60;;;1.87;;
12052;SDS011;6087;48.982;12.064;2023-02-27T01:55:48;2.27;;;2.07;;
12052;SDS011;6087;48.982;12.064;2023-02-27T01:58:16;2.10;;;1.97;;
12052;SDS011;6087;48.982;12.064;2023-02-27T02:00:45;3.83;;;1.90;;
12052;SDS011;6087;48.982;12.064;2023-02-27T02:03:18;4.53;;;2.00;;
12052;SDS011;6087;48.982;12.064;2023-02-27T02:05:54;4.13;;;2.20;;
12052;SDS011;6087;48.982;12.064;2023-02-27T02:08:24;2.43;;;2.10;;
12052;SDS011;6087;48.982;12.064;2023-02-27T02:10:52;2.93;;;2.10;;
12052;SDS011;6087;48.982;12.064;2023-02-27T02:13:21;5.40;;;2.87;;
12052;SDS011;6087;48.982;12.064;2023-02-27T02:15:50;2.43;;;1.90;;
12052;SDS011;6087;48.982;12.064;2023-02-27T02:18:28;4.63;;;2.00;;
12052;SDS011;6087;48.982;12.064;2023-02-27T02:24:31;2.90;;;2.20;;
12052;SDS011;6087;48.982;12.064;2023-02-27T02:27:31;4.00;;;2.10;;
12052;SDS011;6087;48.982;12.064;2023-02-27T02:39:52;3.40;;;2.33;;
12052;SDS011;6087;48.982;12.064;2023-02-27T02:42:25;5.13;;;2.20;;
12052;SDS011;6087;48.982;12.064;2023-02-27T02:45:02;3.10;;;2.20;;
12052;SDS011;6087;48.982;12.064;2023-02-27T02:47:38;2.73;;;2.40;;
12052;SDS011;6087;48.982;12.064;2023-02-27T02:50:12;2.57;;;1.90;;
12052;SDS011;6087;48.982;12.064;2023-02-27T02:52:48;2.30;;;2.13;;
12052;SDS011;6087;48.982;12.064;2023-02-27T02:55:28;2.80;;;2.60;;
12052;SDS011;6087;48.982;12.064;2023-02-27T02:58:01;4.30;;;2.63;;
12052;SDS011;6087;48.982;12.064;2023-02-27T03:00:36;3.90;;;2.50;;
12052;SDS011;6087;48.982;12.064;2023-02-27T03:03:09;3.00;;;2.30;;
12052;SDS011;6087;48.982;12.064;2023-02-27T03:05:40;2.87;;;2.33;;
12052;SDS011;6087;48.982;12.064;2023-02-27T03:08:14;2.90;;;2.70;;
12052;SDS011;6087;48.982;12.064;2023-02-27T03:10:47;6.57;;;2.90;;
12052;SDS011;6087;48.982;12.064;2023-02-27T03:13:18;3.07;;;2.57;;
12052;SDS011;6087;48.982;12.064;2023-02-27T03:15:50;2.80;;;2.53;;
12052;SDS011;6087;48.982;12.064;2023-02-27T03:18:22;3.57;;;2.30;;
12052;SDS011;6087;48.982;12.064;2023-02-27T03:20:53;3.80;;;2.33;;
12052;SDS011;6087;48.982;12.064;2023-02-27T03:23:25;8.07;;;2.63;;
12052;SDS011;6087;48.982;12.064;2023-02-27T03:25:59;3.37;;;2.33;;
12052;SDS011;6087;48.982;12.064;2023-02-27T03:28:28;2.50;;;2.30;;
12052;SDS011;6087;48.982;12.064;2023-02-27T03:30:59;3.27;;;2.10;;
12052;SDS011;6087;48.982;12.064;2023-02-27T03:33:36;3.40;;;2.70;;
12052;SDS011;6087;48.982;12.064;2023-02-27T03:36:08;7.97;;;3.60;;
12052;SDS011;6087;48.982;12.064;2023-02-27T03:38:50;2.63;;;2.33;;
12052;SDS011;6087;48.982;12.064;2023-02-27T03:41:25;2.80;;;2.50;;
12052;SDS011;6087;48.982;12.064;2023-02-27T03:44:00;2.20;;;1.90;;
12052;SDS011;6087;48.982;12.064;2023-02-27T03:46:32;3.23;;;1.90;;
12052;SDS011;6087;48.982;12.064;2023-02-27T03:49:02;4.60;;;2.30;;
12052;SDS011;6087;48.982;12.064;2023-02-27T03:51:29;4.70;;;2.57;;
12052;SDS011;6087;48.982;12.064;2023-02-27T03:53:58;5.77;;;2.20;;
12052;SDS011;6087;48.982;12.064;2023-02-27T03:56:32;2.37;;;2.13;;
12052;SDS011;6087;48.982;12.064;2023-02-27T03:59:04;2.70;;;2.27;;
12052;SDS011;6087;48.982;12.064;2023-02-27T04:01:32;2.33;;;2.23;;
12052;SDS011;6087;48.982;12.064;2023-02-27T04:04:00;3.43;;;2.03;;
12052;SDS011;6087;48.982;12.064;2023-02-27T04:06:30;2.30;;;2.03;;
12052;SDS011;6087;48.982;12.064;2023-02-27T04:09:20;2.83;;;2.37;;
12052;SDS011;6087;48.982;12.064;2023-02-27T04:12:01;2.83;;;2.27;;
12052;SDS011;6087;48.982;12.064;2023-02-27T04:14:43;2.00;;;1.90;;
12052;SDS011;6087;48.982;12.064;2023-02-27T04:17:20;2.73;;;2.33;;
12052;SDS011;6087;48.982;12.064;2023-02-27T04:19:54;2.97;;;2.57;;
12052;SDS011;6087;48.982;12.064;2023-02-27T04:22:40;3.10;;;2.07;;
12052;SDS011;6087;48.982;12.064;2023-02-27T04:25:17;3.23;;;2.87;;
12052;SDS011;6087;48.982;12.064;2023-02-27T04:27:55;3.27;;;2.13;;
12052;SDS011;6087;48.982;12.064;2023-02-27T04:30:28;2.30;;;2.17;;
12052;SDS011;6087;48.982;12.064;2023-02-27T04:33:02;2.90;;;2.57;;
12052;SDS011;6087;48.982;12.064;2023-02-27T04:35:36;3.40;;;2.50;;
12052;SDS011;6087;48.982;12.064;2023-02-27T04:38:08;2.57;;;2.37;;
12052;SDS011;6087;48.982;12.064;2023-02-27T04:40:43;3.03;;;2.73;;
12052;SDS011;6087;48.982;12.064;2023-02-27T04:43:15;4.10;;;2.30;;
12052;SDS011;6087;48.982;12.064;2023-02-27T04:45:44;3.30;;;2.43;;
12052;SDS011;6087;48.982;12.064;2023-02-27T04:48:14;2.60;;;2.40;;
12052;SDS011;6087;48.982;12.064;2023-02-27T04:50:47;2.80;;;2.60;;
12052;SDS011;6087;48.982;12.064;2023-02-27T04:53:20;3.70;;;2.40;;
12052;SDS011;6087;48.982;12.064;2023-02-27T04:55:51;3.67;;;2.57;;
12052;SDS011;6087;48.982;12.064;2023-02-27T04:58:23;4.37;;;2.63;;
12052;SDS011;6087;48.982;12.064;2023-02-27T05:00:53;4.13;;;2.83;;
12052;SDS011;6087;48.982;12.064;2023-02-27T05:03:27;3.73;;;2.37;;
12052;SDS011;6087;48.982;12.064;2023-02-27T05:05:59;3.60;;;2.87;;
12052;SDS011;6087;48.982;12.064;2023-02-27T05:08:28;3.37;;;2.23;;
12052;SDS011;6087;48.982;12.064;2023-02-27T05:11:02;3.93;;;2.60;;
12052;SDS011;6087;48.982;12.064;2023-02-27T05:13:37;4.77;;;2.90;;
12052;SDS011;6087;48.982;12.064;2023-02-27T05:16:08;5.83;;;2.70;;
12052;SDS011;6087;48.982;12.064;2023-02-27T05:18:41;4.43;;;2.77;;
12052;SDS011;6087;48.982;12.064;2023-02-27T05:21:11;3.67;;;3.00;;
12052;SDS011;6087;48.982;12.064;2023-02-27T05:23:49;4.70;;;2.67;;
12052;SDS011;6087;48.982;12.064;2023-02-27T05:26:26;5.63;;;3.23;;
12052;SDS011;6087;48.982;12.064;2023-02-27T05:29:06;3.20;;;2.90;;
12052;SDS011;6087;48.982;12.064;2023-02-27T05:31:40;4.50;;;3.13;;
12052;SDS011;6087;48.982;12.064;2023-02-27T05:34:12;2.70;;;2.43;;
12052;SDS011;6087;48.982;12.064;2023-02-27T05:36:44;3.40;;;2.80;;
12052;SDS011;6087;48.982;12.064;2023-02-27T05:39:16;3.67;;;2.73;;
12052;SDS011;6087;48.982;12.064;2023-02-27T05:41:49;4.77;;;2.87;;
12052;SDS011;6087;48.982;12.064;2023-02-27T05:44:23;2.57;;;2.20;;
12052;SDS011;6087;48.982;12.064;2023-02-27T05:47:00;2.73;;;2.27;;
12052;SDS011;6087;48.982;12.064;2023-02-27T05:49:35;4.70;;;2.80;;
12052;SDS011;6087;48.982;12.064;2023-02-27T05:52:06;3.70;;;2.33;;
12052;SDS011;6087;48.982;12.064;2023-02-27T05:54:38;4.53;;;2.40;;
12052;SDS011;6087;48.982;12.064;2023-02-27T05:57:10;3.00;;;2.30;;
12052;SDS011;6087;48.982;12.064;2023-02-27T05:59:44;3.20;;;2.60;;
12052;SDS011;6087;48.982;12.064;2023-02-27T06:02:15;4.47;;;2.70;;
12052;SDS011;6087;48.982;12.064;2023-02-27T06:04:42;3.57;;;3.00;;
12052;SDS011;6087;48.982;12.064;2023-02-27T06:07:10;4.33;;;3.17;;
12052;SDS011;6087;48.982;12.064;2023-02-27T06:09:38;3.17;;;2.60;;
12052;SDS011;6087;48.982;12.064;2023-02-27T06:12:06;2.70;;;2.47;;
12052;SDS011;6087;48.982;12.064;2023-02-27T06:14:33;2.23;;;1.90;;
12052;SDS011;6087;48.982;12.064;2023-02-27T06:17:02;3.20;;;2.30;;
12052;SDS011;6087;48.982;12.064;2023-02-27T06:19:29;2.70;;;2.43;;
12052;SDS011;6087;48.982;12.064;2023-02-27T06:21:56;2.87;;;2.50;;
12052;SDS011;6087;48.982;12.064;2023-02-27T06:24:23;3.13;;;2.33;;
12052;SDS011;6087;48.982;12.064;2023-02-27T06:26:50;3.77;;;2.47;;
12052;SDS011;6087;48.982;12.064;2023-02-27T06:29:18;2.37;;;2.10;;
12052;SDS011;6087;48.982;12.064;2023-02-27T06:31:45;5.23;;;2.70;;
12052;SDS011;6087;48.982;12.064;2023-02-27T06:34:16;2.87;;;2.33;;
12052;SDS011;6087;48.982;12.064;2023-02-27T06:36:43;3.53;;;2.60;;
12052;SDS011;6087;48.982;12.064;2023-02-27T06:39:10;2.93;;;2.23;;
12052;SDS011;6087;48.982;12.064;2023-02-27T06:41:37;2.97;;;2.43;;
12052;SDS011;6087;48.982;12.064;2023-02-27T06:44:04;3.40;;;2.73;;
12052;SDS011;6087;48.982;12.064;2023-02-27T06:46:31;4.20;;;2.40;;
12052;SDS011;6087;48.982;12.064;2023-02-27T06:49:02;3.20;;;2.43;;
12052;SDS011;6087;48.982;12.064;2023-02-27T06:51:30;4.20;;;2.57;;
12052;SDS011;6087;48.982;12.064;2023-02-27T06:53:57;6.30;;;3.73;;
12052;SDS011;6087;48.982;12.064;2023-02-27T06:56:27;6.00;;;3.53;;
12052;SDS011;6087;48.982;12.064;2023-02-27T06:58:57;8.77;;;5.17;;
12052;SDS011;6087;48.982;12.064;2023-02-27T07:01:24;8.57;;;5.07;;
12052;SDS011;6087;48.982;12.064;2023-02-27T07:03:51;6.73;;;2.80;;
12052;SDS011;6087;48.982;12.064;2023-02-27T07:06:18;4.20;;;3.37;;
12052;SDS011;6087;48.982;12.064;2023-02-27T07:08:46;3.50;;;3.20;;
12052;SDS011;6087;48.982;12.064;2023-02-27T07:11:13;3.50;;;2.97;;
12052;SDS011;6087;48.982;12.064;2023-02-27T07:13:40;5.97;;;3.47;;
12052;SDS011;6087;48.982;12.064;2023-02-27T07:16:08;4.07;;;3.07;;
12052;SDS011;6087;48.982;12.064;2023-02-27T07:18:36;3.23;;;2.70;;
12052;SDS011;6087;48.982;12.064;2023-02-27T07:21:04;3.00;;;2.70;;
12052;SDS011;6087;48.982;12.064;2023-02-27T07:23:31;7.20;;;3.40;;
12052;SDS011;6087;48.982;12.064;2023-02-27T07:26:00;4.83;;;2.90;;
12052;SDS011;6087;48.982;12.064;2023-02-27T07:28:27;6.03;;;3.97;;
12052;SDS011;6087;48.982;12.064;2023-02-27T07:30:55;3.47;;;3.10;;
12052;SDS011;6087;48.982;12.064;2023-02-27T07:33:22;4.30;;;2.50;;
12052;SDS011;6087;48.982;12.064;2023-02-27T07:35:49;4.50;;;2.63;;
12052;SDS011;6087;48.982;12.064;2023-02-27T07:38:17;6.47;;;2.87;;
12052;SDS011;6087;48.982;12.064;2023-02-27T07:40:46;4.70;;;3.40;;
12052;SDS011;6087;48.982;12.064;2023-02-27T07:43:15;3.30;;;2.97;;
12052;SDS011;6087;48.982;12.064;2023-02-27T07:45:42;6.00;;;5.40;;
12052;SDS011;6087;48.982;12.064;2023-02-27T07:48:10;4.33;;;3.80;;
12052;SDS011;6087;48.982;12.064;2023-02-27T07:50:37;5.47;;;3.17;;
12052;SDS011;6087;48.982;12.064;2023-02-27T07:53:04;8.17;;;3.50;;
12052;SDS011;6087;48.982;12.064;2023-02-27T07:55:32;4.40;;;3.40;;
12052;SDS011;6087;48.982;12.064;2023-02-27T07:57:59;3.70;;;3.23;;
12052;SDS011;6087;48.982;12.064;2023-02-27T08:00:28;3.83;;;3.40;;
12052;SDS011;6087;48.982;12.064;2023-02-27T08:02:55;4.07;;;3.60;;
12052;SDS011;6087;48.982;12.064;2023-02-27T08:05:22;5.70;;;4.37;;
12052;SDS011;6087;48.982;12.064;2023-02-27T08:07:49;5.07;;;4.03;;
12052;SDS011;6087;48.982;12.064;2023-02-27T08:10:16;7.63;;;6.23;;
12052;SDS011;6087;48.982;12.064;2023-02-27T08:12:43;10.23;;;6.23;;
12052;SDS011;6087;48.982;12.064;2023-02-27T08:15:10;10.93;;;5.67;;
12052;SDS011;6087;48.982;12.064;2023-02-27T08:17:39;8.77;;;5.40;;
12052;SDS011;6087;48.982;12.064;2023-02-27T08:20:07;11.00;;;6.00;;
12052;SDS011;6087;48.982;12.064;2023-02-27T08:22:36;6.90;;;4.30;;
12052;SDS011;6087;48.982;12.064;2023-02-27T08:25:03;9.83;;;6.20;;
12052;SDS011;6087;48.982;12.064;2023-02-27T08:27:32;10.60;;;6.53;;
12052;SDS011;6087;48.982;12.064;2023-02-27T08:29:59;10.53;;;5.13;;
12052;SDS011;6087;48.982;12.064;2023-02-27T08:32:27;9.20;;;6.10;;
12052;SDS011;6087;48.982;12.064;2023-02-27T08:34:55;11.43;;;6.50;;
12052;SDS011;6087;48.982;12.064;2023-02-27T08:37:22;13.77;;;6.37;;
12052;SDS011;6087;48.982;12.064;2023-02-27T08:39:49;14.43;;;6.90;;
12052;SDS011;6087;48.982;12.064;2023-02-27T08:42:16;7.40;;;3.80;;
12052;SDS011;6087;48.982;12.064;2023-02-27T08:44:43;7.40;;;3.93;;
12052;SDS011;6087;48.982;12.064;2023-02-27T08:47:11;8.93;;;3.67;;
12052;SDS011;6087;48.982;12.064;2023-02-27T08:49:41;12.63;;;4.53;;
12052;SDS011;6087;48.982;12.064;2023-02-27T08:52:09;4.50;;;3.00;;
12052;SDS011;6087;48.982;12.064;2023-02-27T08:54:36;3.73;;;2.50;;
12052;SDS011;6087;48.982;12.064;2023-02-27T08:57:03;3.13;;;2.57;;
12052;SDS011;6087;48.982;12.064;2023-02-27T08:59:31;4.30;;;1.97;;
12052;SDS011;6087;48.982;12.064;2023-02-27T09:02:05;5.00;;;2.30;;
12052;SDS011;6087;48.982;12.064;2023-02-27T09:04:38;5.87;;;3.10;;
12052;SDS011;6087;48.982;12.064;2023-02-27T09:07:09;3.17;;;2.80;;
12052;SDS011;6087;48.982;12.064;2023-02-27T09:09:37;4.87;;;3.10;;
12052;SDS011;6087;48.982;12.064;2023-02-27T09:12:04;3.30;;;2.70;;
12052;SDS011;6087;48.982;12.064;2023-02-27T09:14:32;2.87;;;2.07;;
12052;SDS011;6087;48.982;12.064;2023-02-27T09:16:59;2.60;;;2.27;;
12052;SDS011;6087;48.982;12.064;2023-02-27T09:19:26;5.10;;;2.37;;
12052;SDS011;6087;48.982;12.064;2023-02-27T09:21:53;2.80;;;2.47;;
12052;SDS011;6087;48.982;12.064;2023-02-27T09:24:22;4.93;;;2.47;;
12052;SDS011;6087;48.982;12.064;2023-02-27T09:26:49;2.70;;;2.20;;
12052;SDS011;6087;48.982;12.064;2023-02-27T09:29:17;3.83;;;2.40;;
12052;SDS011;6087;48.982;12.064;2023-02-27T09:31:45;4.70;;;2.17;;
12052;SDS011;6087;48.982;12.064;2023-02-27T09:34:12;5.53;;;2.30;;
12052;SDS011;6087;48.982;12.064;2023-02-27T09:36:39;4.23;;;2.37;;
12052;SDS011;6087;48.982;12.064;2023-02-27T09:39:06;2.37;;;2.07;;
12052;SDS011;6087;48.982;12.064;2023-02-27T09:41:55;2.67;;;2.03;;
12052;SDS011;6087;48.982;12.064;2023-02-27T09:44:35;3.03;;;2.40;;
12052;SDS011;6087;48.982;12.064;2023-02-27T09:47:05;4.33;;;2.30;;
12052;SDS011;6087;48.982;12.064;2023-02-27T09:49:40;3.60;;;2.30;;
12052;SDS011;6087;48.982;12.064;2023-02-27T09:52:19;2.00;;;1.87;;
12052;SDS011;6087;48.982;12.064;2023-02-27T09:54:46;4.77;;;2.93;;
12052;SDS011;6087;48.982;12.064;2023-02-27T09:57:16;5.40;;;2.00;;
12052;SDS011;6087;48.982;12.064;2023-02-27T09:59:50;3.67;;;2.17;;
12052;SDS011;6087;48.982;12.064;2023-02-27T10:02:29;3.37;;;2.07;;
12052;SDS011;6087;48.982;12.064;2023-02-27T10:05:04;2.20;;;2.00;;
12052;SDS011;6087;48.982;12.064;2023-02-27T10:07:43;3.07;;;1.83;;
12052;SDS011;6087;48.982;12.064;2023-02-27T10:10:17;2.17;;;1.63;;
12052;SDS011;6087;48.982;12.064;2023-02-27T10:12:53;2.77;;;1.63;;
12052;SDS011;6087;48.982;12.064;2023-02-27T10:15:38;2.70;;;1.90;;
12052;SDS011;6087;48.982;12.064;2023-02-27T10:18:09;5.33;;;1.80;;
12052;SDS011;6087;48.982;12.064;2023-02-27T10:20:42;1.97;;;1.63;;
12052;SDS011;6087;48.982;12.064;2023-02-27T10:23:15;2.00;;;1.60;;
12052;SDS011;6087;48.982;12.064;2023-02-27T10:25:47;3.70;;;1.87;;
12052;SDS011;6087;48.982;12.064;2023-02-27T10:28:18;3.63;;;1.97;;
12052;SDS011;6087;48.982;12.064;2023-02-27T10:30:47;2.47;;;1.93;;
12052;SDS011;6087;48.982;12.064;2023-02-27T10:33:18;2.80;;;1.97;;
12052;SDS011;6087;48.982;12.064;2023-02-27T10:35:52;3.77;;;2.20;;
12052;SDS011;6087;48.982;12.064;2023-02-27T10:38:24;1.80;;;1.70;;
12052;SDS011;6087;48.982;12.064;2023-02-27T10:40:58;2.93;;;2.00;;
12052;SDS011;6087;48.982;12.064;2023-02-27T10:43:28;3.20;;;2.23;;
12052;SDS011;6087;48.982;12.064;2023-02-27T10:45:55;2.07;;;1.57;;
12052;SDS011;6087;48.982;12.064;2023-02-27T10:48:26;2.37;;;1.47;;
12052;SDS011;6087;48.982;12.064;2023-02-27T10:50:54;3.17;;;2.10;;
12052;SDS011;6087;48.982;12.064;2023-02-27T10:53:46;2.30;;;2.10;;
12052;SDS011;6087;48.982;12.064;2023-02-27T10:56:17;2.50;;;1.77;;
12052;SDS011;6087;48.982;12.064;2023-02-27T10:59:01;2.47;;;1.80;;
12052;SDS011;6087;48.982;12.064;2023-02-27T11:01:40;2.20;;;2.00;;
12052;SDS011;6087;48.982;12.064;2023-02-27T11:04:09;2.53;;;1.73;;
12052;SDS011;6087;48.982;12.064;2023-02-27T11:06:37;2.97;;;1.77;;
12052;SDS011;6087;48.982;12.064;2023-02-27T11:09:16;4.23;;;2.20;;
12052;SDS011;6087;48.982;12.064;2023-02-27T11:11:46;3.33;;;2.00;;
12052;SDS011;6087;48.982;12.064;2023-02-27T11:14:21;3.73;;;2.00;;
12052;SDS011;6087;48.982;12.064;2023-02-27T11:16:52;2.63;;;1.80;;
12052;SDS011;6087;48.982;12.064;2023-02-27T11:19:24;3.87;;;1.83;;
12052;SDS011;6087;48.982;12.064;2023-02-27T11:22:03;2.27;;;1.83;;
12052;SDS011;6087;48.982;12.064;2023-02-27T11:24:32;3.00;;;2.00;;
12052;SDS011;6087;48.982;12.064;2023-02-27T11:27:02;2.27;;;1.83;;
12052;SDS011;6087;48.982;12.064;2023-02-27T11:29:53;1.70;;;1.60;;
12052;SDS011;6087;48.982;12.064;2023-02-27T11:32:23;2.30;;;1.80;;
12052;SDS011;6087;48.982;12.064;2023-02-27T11:34:52;2.50;;;1.70;;
12052;SDS011;6087;48.982;12.064;2023-02-27T11:37:20;2.30;;;1.70;;
12052;SDS011;6087;48.982;12.064;2023-02-27T11:39:56;3.00;;;2.30;;
12052;SDS011;6087;48.982;12.064;2023-02-27T11:42:31;2.77;;;1.90;;
12052;SDS011;6087;48.982;12.064;2023-02-27T11:45:02;3.20;;;2.30;;
12052;SDS011;6087;48.982;12.064;2023-02-27T11:47:32;3.57;;;2.20;;
12052;SDS011;6087;48.982;12.064;2023-02-27T11:50:04;3.90;;;2.43;;
12052;SDS011;6087;48.982;12.064;2023-02-27T11:52:52;2.03;;;1.93;;
12052;SDS011;6087;48.982;12.064;2023-02-27T11:55:22;4.07;;;2.17;;
12052;SDS011;6087;48.982;12.064;2023-02-27T11:57:54;7.87;;;2.57;;
12052;SDS011;6087;48.982;12.064;2023-02-27T12:00:28;8.50;;;2.50;;
12052;SDS011;6087;48.982;12.064;2023-02-27T12:02:59;4.60;;;2.10;;
12052;SDS011;6087;48.982;12.064;2023-02-27T12:05:32;2.13;;;1.77;;
12052;SDS011;6087;48.982;12.064;2023-02-27T12:08:04;2.67;;;2.00;;
12052;SDS011;6087;48.982;12.064;2023-02-27T12:10:38;3.50;;;2.80;;
12052;SDS011;6087;48.982;12.064;2023-02-27T12:13:13;2.30;;;2.10;;
12052;SDS011;6087;48.982;12.064;2023-02-27T12:15:46;3.90;;;2.40;;
12052;SDS011;6087;48.982;12.064;2023-02-27T12:18:17;2.77;;;1.67;;
12052;SDS011;6087;48.982;12.064;2023-02-27T12:20:49;3.07;;;2.20;;
12052;SDS011;6087;48.982;12.064;2023-02-27T12:23:22;4.83;;;1.90;;
12052;SDS011;6087;48.982;12.064;2023-02-27T12:25:55;3.37;;;2.50;;
12052;SDS011;6087;48.982;12.064;2023-02-27T12:28:31;2.50;;;2.00;;
12052;SDS011;6087;48.982;12.064;2023-02-27T12:31:10;2.73;;;2.20;;
12052;SDS011;6087;48.982;12.064;2023-02-27T12:33:50;2.33;;;2.10;;
12052;SDS011;6087;48.982;12.064;2023-02-27T12:36:23;3.17;;;2.10;;
12052;SDS011;6087;48.982;12.064;2023-02-27T12:38:50;2.77;;;2.53;;
12052;SDS011;6087;48.982;12.064;2023-02-27T12:44:16;4.10;;;2.30;;
12052;SDS011;6087;48.982;12.064;2023-02-27T12:46:59;5.07;;;2.23;;
12052;SDS011;6087;48.982;12.064;2023-02-27T12:49:39;2.00;;;1.77;;
12052;SDS011;6087;48.982;12.064;2023-02-27T12:52:16;2.93;;;2.20;;
12052;SDS011;6087;48.982;12.064;2023-02-27T12:54:53;2.43;;;2.17;;
12052;SDS011;6087;48.982;12.064;2023-02-27T12:57:31;2.10;;;1.60;;
12052;SDS011;6087;48.982;12.064;2023-02-27T13:00:11;4.60;;;2.47;;
12052;SDS011;6087;48.982;12.064;2023-02-27T13:02:55;4.37;;;1.90;;
12052;SDS011;6087;48.982;12.064;2023-02-27T13:05:27;2.10;;;1.90;;
12052;SDS011;6087;48.982;12.064;2023-02-27T13:08:13;2.37;;;2.17;;
12052;SDS011;6087;48.982;12.064;2023-02-27T13:10:57;2.47;;;1.83;;
12052;SDS011;6087;48.982;12.064;2023-02-27T13:13:31;3.83;;;1.90;;
12052;SDS011;6087;48.982;12.064;2023-02-27T13:16:04;3.55;;;1.80;;
12052;SDS011;6087;48.982;12.064;2023-02-27T13:18:40;1.75;;;1.60;;
12052;SDS011;6087;48.982;12.064;2023-02-27T13:21:15;3.50;;;2.08;;
12052;SDS011;6087;48.982;12.064;2023-02-27T13:23:57;3.58;;;2.08;;
12052;SDS011;6087;48.982;12.064;2023-02-27T13:26:40;2.47;;;2.08;;
12052;SDS011;6087;48.982;12.064;2023-02-27T13:29:10;2.37;;;1.90;;
12052;SDS011;6087;48.982;12.064;2023-02-27T13:31:41;2.47;;;1.67;;
12052;SDS011;6087;48.982;12.064;2023-02-27T13:34:18;2.37;;;1.67;;
12052;SDS011;6087;48.982;12.064;2023-02-27T13:36:52;2.63;;;1.80;;
12052;SDS011;6087;48.982;12.064;2023-02-27T13:39:40;2.90;;;1.77;;
12052;SDS011;6087;48.982;12.064;2023-02-27T13:51:08;1.50;;;1.40;;
12052;SDS011;6087;48.982;12.064;2023-02-27T13:54:04;2.93;;;1.90;;
12052;SDS011;6087;48.982;12.064;2023-02-27T13:56:34;2.00;;;1.77;;
12052;SDS011;6087;48.982;12.064;2023-02-27T13:59:09;1.93;;;1.63;;
12052;SDS011;6087;48.982;12.064;2023-02-27T14:01:37;5.37;;;2.40;;
12052;SDS011;6087;48.982;12.064;2023-02-27T14:04:13;2.17;;;1.80;;
12052;SDS011;6087;48.982;12.064;2023-02-27T14:06:45;4.50;;;1.80;;
12052;SDS011;6087;48.982;12.064;2023-02-27T14:09:16;2.87;;;1.90;;
12052;SDS011;6087;48.982;12.064;2023-02-27T14:11:52;1.50;;;1.40;;
12052;SDS011;6087;48.982;12.064;2023-02-27T14:14:37;2.07;;;1.70;;
12052;SDS011;6087;48.982;12.064;2023-02-27T14:17:10;2.97;;;1.90;;
12052;SDS011;6087;48.982;12.064;2023-02-27T14:19:43;1.90;;;1.70;;
12052;SDS011;6087;48.982;12.064;2023-02-27T14:22:33;1.63;;;1.53;;
12052;SDS011;6087;48.982;12.064;2023-02-27T14:25:17;2.17;;;1.80;;
12052;SDS011;6087;48.982;12.064;2023-02-27T14:27:50;3.20;;;1.63;;
12052;SDS011;6087;48.982;12.064;2023-02-27T14:30:22;2.57;;;2.10;;
12052;SDS011;6087;48.982;12.064;2023-02-27T14:33:16;2.57;;;1.70;;
12052;SDS011;6087;48.982;12.064;2023-02-27T14:35:49;2.57;;;2.03;;
12052;SDS011;6087;48.982;12.064;2023-02-27T14:38:27;1.70;;;1.60;;
12052;SDS011;6087;48.982;12.064;2023-02-27T14:43:57;2.53;;;1.80;;
12052;SDS011;6087;48.982;12.064;2023-02-27T14:46:26;3.93;;;1.93;;
12052;SDS011;6087;48.982;12.064;2023-02-27T14:48:56;3.13;;;2.10;;
12052;SDS011;6087;48.982;12.064;2023-02-27T14:51:24;3.10;;;2.27;;
12052;SDS011;6087;48.982;12.064;2023-02-27T14:54:02;3.43;;;2.40;;
12052;SDS011;6087;48.982;12.064;2023-02-27T14:56:32;2.88;;;2.17;;
12052;SDS011;6087;48.982;12.064;2023-02-27T14:58:59;3.15;;;1.92;;
12052;SDS011;6087;48.982;12.064;2023-02-27T15:01:27;3.28;;;1.80;;
12052;SDS011;6087;48.982;12.064;2023-02-27T15:04:01;2.77;;;2.13;;
12052;SDS011;6087;48.982;12.064;2023-02-27T15:06:34;3.50;;;2.50;;
12052;SDS011;6087;48.982;12.064;2023-02-27T15:09:03;4.23;;;1.90;;
12052;SDS011;6087;48.982;12.064;2023-02-27T15:11:32;1.53;;;1.43;;
12052;SDS011;6087;48.982;12.064;2023-02-27T15:14:00;4.23;;;1.70;;
12052;SDS011;6087;48.982;12.064;2023-02-27T15:16:33;4.47;;;1.90;;
12052;SDS011;6087;48.982;12.064;2023-02-27T15:19:12;2.47;;;1.80;;
12052;SDS011;6087;48.982;12.064;2023-02-27T15:21:42;2.90;;;1.97;;
12052;SDS011;6087;48.982;12.064;2023-02-27T15:24:23;2.57;;;1.80;;
12052;SDS011;6087;48.982;12.064;2023-02-27T15:26:53;2.43;;;1.67;;
12052;SDS011;6087;48.982;12.064;2023-02-27T15:29:25;5.40;;;2.27;;
12052;SDS011;6087;48.982;12.064;2023-02-27T15:31:57;2.03;;;1.33;;
12052;SDS011;6087;48.982;12.064;2023-02-27T15:34:25;3.63;;;1.60;;
12052;SDS011;6087;48.982;12.064;2023-02-27T15:36:54;1.60;;;1.50;;
12052;SDS011;6087;48.982;12.064;2023-02-27T15:39:26;2.33;;;2.07;;
12052;SDS011;6087;48.982;12.064;2023-02-27T15:41:56;2.13;;;1.53;;
12052;SDS011;6087;48.982;12.064;2023-02-27T15:44:29;2.80;;;1.70;;